createdAt,value
2022-09-25T00:00:59.540Z,100909.03
2022-09-25T00:03:25.050Z,100913.19
2022-09-25T00:05:49.923Z,100902.22
2022-09-25T00:08:14.724Z,100897.66
2022-09-25T00:10:42.944Z,100897.22
2022-09-25T00:13:07.875Z,100900.94
2022-09-25T00:15:31.439Z,100890.84
2022-09-25T00:17:54.979Z,100889.41
2022-09-25T00:20:20.719Z,100892.69
2022-09-25T00:22:44.514Z,100884.88
2022-09-25T00:25:09.100Z,100883.34
2022-09-25T00:27:32.946Z,100876.63
2022-09-25T00:29:59.736Z,100873.09
2022-09-25T00:32:23.274Z,100870.81
2022-09-25T00:34:47.091Z,100875.78
2022-09-25T00:37:10.635Z,100879.03
2022-09-25T00:39:35.335Z,100879.59
2022-09-25T00:41:58.974Z,100879.78
2022-09-25T00:44:58.079Z,100871.97
2022-09-25T00:47:27.731Z,100872.81
2022-09-25T00:49:52.374Z,100867.41
2022-09-25T00:52:16.492Z,100861.00
2022-09-25T00:54:45.252Z,100870.28
2022-09-25T00:57:14.962Z,100858.19
2022-09-25T00:59:41.723Z,100866.84
2022-09-25T01:02:08.980Z,100864.28
2022-09-25T01:04:38.132Z,100864.56
2022-09-25T01:07:01.858Z,100861.72
2022-09-25T01:09:25.995Z,100860.59
2022-09-25T01:11:49.521Z,100863.00
2022-09-25T01:14:16.980Z,100860.47
2022-09-25T01:16:49.836Z,100861.72
2022-09-25T01:19:35.567Z,100859.03
2022-09-25T01:22:07.367Z,100858.88
2022-09-25T01:24:46.174Z,100861.16
2022-09-25T01:27:43.491Z,100864.03
2022-09-25T01:30:13.495Z,100859.03
2022-09-25T01:32:49.588Z,100850.69
2022-09-25T01:35:20.843Z,100857.03
2022-09-25T01:37:49.382Z,100854.22
2022-09-25T01:40:21.080Z,100853.66
2022-09-25T01:42:52.808Z,100846.84
2022-09-25T01:45:24.025Z,100860.91
2022-09-25T01:47:50.234Z,100854.38
2022-09-25T01:50:19.681Z,100849.97
2022-09-25T01:52:49.406Z,100852.22
2022-09-25T01:55:18.228Z,100849.81
2022-09-25T01:57:49.277Z,100845.97
2022-09-25T02:00:19.758Z,100852.09
2022-09-25T02:02:48.387Z,100841.00
2022-09-25T02:05:16.203Z,100847.13
2022-09-25T02:07:46.147Z,100842.41
2022-09-25T02:10:15.030Z,100835.34
2022-09-25T02:12:43.442Z,100841.84
2022-09-25T02:15:13.451Z,100835.59
2022-09-25T02:18:04.367Z,100837.72
2022-09-25T02:20:34.700Z,100829.66
2022-09-25T02:23:03.156Z,100832.75
2022-09-25T02:25:37.863Z,100834.31
2022-09-25T02:28:01.459Z,100835.88
2022-09-25T02:30:25.080Z,100828.50
2022-09-25T02:32:50.098Z,100832.34
2022-09-25T02:35:13.599Z,100834.88
2022-09-25T02:37:37.192Z,100832.50
2022-09-25T02:40:04.182Z,100835.03
2022-09-25T02:42:40.689Z,100832.34
2022-09-25T02:45:13.902Z,100826.22
2022-09-25T02:47:48.655Z,100828.94
2022-09-25T02:50:22.856Z,100821.69
2022-09-25T02:52:54.643Z,100826.53
2022-09-25T02:55:28.721Z,100829.34
2022-09-25T02:57:57.790Z,100830.63
2022-09-25T03:00:22.878Z,100825.53
2022-09-25T03:02:52.335Z,100823.25
2022-09-25T03:05:18.303Z,100830.06
2022-09-25T03:08:00.472Z,100825.66
2022-09-25T03:10:24.886Z,100833.63
2022-09-25T03:12:48.418Z,100832.50
2022-09-25T03:15:13.632Z,100825.25
2022-09-25T03:17:37.502Z,100825.81
2022-09-25T03:20:01.142Z,100827.09
2022-09-25T03:22:26.028Z,100824.25
2022-09-25T03:24:50.759Z,100827.38
2022-09-25T03:27:14.279Z,100822.53
2022-09-25T03:29:37.861Z,100821.72
2022-09-25T03:32:01.491Z,100819.69
2022-09-25T03:34:25.097Z,100820.13
2022-09-25T03:36:48.752Z,100817.72
2022-09-25T03:39:15.134Z,100828.66
2022-09-25T03:41:38.970Z,100816.84
2022-09-25T03:44:03.328Z,100822.81
2022-09-25T03:46:29.862Z,100822.25
2022-09-25T03:48:53.759Z,100815.44
2022-09-25T03:51:17.348Z,100809.22
2022-09-25T03:53:41.204Z,100812.91
2022-09-25T03:56:09.230Z,100811.19
2022-09-25T03:58:33.051Z,100806.63
2022-09-25T04:00:57.727Z,100807.50
2022-09-25T04:03:22.568Z,100809.75
2022-09-25T04:05:46.409Z,100805.63
2022-09-25T04:08:10.116Z,100807.19
2022-09-25T04:10:34.350Z,100805.50
2022-09-25T04:12:59.327Z,100810.03
2022-09-25T04:15:24.107Z,100811.88
2022-09-25T04:17:47.736Z,100811.19
2022-09-25T04:20:11.607Z,100814.56
2022-09-25T04:22:35.190Z,100814.31
2022-09-25T04:24:58.707Z,100819.13
2022-09-25T04:27:24.325Z,100807.06
2022-09-25T04:29:50.291Z,100806.63
2022-09-25T04:32:42.799Z,100802.09
2022-09-25T04:35:07.199Z,100801.38
2022-09-25T04:37:30.719Z,100803.50
2022-09-25T04:39:54.927Z,100798.28
2022-09-25T04:42:18.510Z,100809.91
2022-09-25T04:44:42.069Z,100802.94
2022-09-25T04:47:07.018Z,100803.22
2022-09-25T04:49:30.584Z,100802.94
2022-09-25T04:51:54.123Z,100808.59
2022-09-25T04:54:17.931Z,100803.09
2022-09-25T04:56:41.448Z,100804.63
2022-09-25T04:59:05.042Z,100804.63
2022-09-25T05:01:28.619Z,100804.00
2022-09-25T05:03:54.509Z,100809.69
2022-09-25T05:06:18.354Z,100813.69
2022-09-25T05:08:41.923Z,100811.25
2022-09-25T05:11:05.457Z,100808.84
2022-09-25T05:13:29.239Z,100811.69
2022-09-25T05:15:52.963Z,100804.56
2022-09-25T05:18:20.756Z,100807.41
2022-09-25T05:20:46.421Z,100819.34
2022-09-25T05:23:10.396Z,100823.03
2022-09-25T05:25:34.295Z,100820.91
2022-09-25T05:28:00.568Z,100819.59
2022-09-25T05:30:24.237Z,100811.09
2022-09-25T05:32:50.618Z,100816.75
2022-09-25T05:35:14.276Z,100831.22
2022-09-25T05:37:39.264Z,100826.66
2022-09-25T05:40:03.675Z,100828.22
2022-09-25T05:42:29.037Z,100834.03
2022-09-25T05:44:52.536Z,100832.31
2022-09-25T05:47:16.099Z,100829.91
2022-09-25T05:49:39.599Z,100826.59
2022-09-25T05:52:03.835Z,100822.81
2022-09-25T05:54:28.754Z,100818.59
2022-09-25T05:56:52.299Z,100824.41
2022-09-25T05:59:15.787Z,100819.41
2022-09-25T06:01:39.479Z,100824.09
2022-09-25T06:04:04.539Z,100821.97
2022-09-25T06:06:28.072Z,100820.41
2022-09-25T06:08:51.565Z,100817.16
2022-09-25T06:11:16.525Z,100818.44
2022-09-25T06:13:41.012Z,100813.22
2022-09-25T06:16:06.047Z,100822.09
2022-09-25T06:18:29.576Z,100815.59
2022-09-25T06:20:59.490Z,100819.50
2022-09-25T06:23:23.001Z,100827.91
2022-09-25T06:25:46.840Z,100820.94
2022-09-25T06:28:13.150Z,100829.81
2022-09-25T06:30:38.583Z,100822.84
2022-09-25T06:33:03.484Z,100825.09
2022-09-25T06:35:27.232Z,100823.22
2022-09-25T06:37:50.772Z,100824.94
2022-09-25T06:40:14.342Z,100824.66
2022-09-25T06:42:39.050Z,100827.63
2022-09-25T06:45:04.099Z,100829.63
2022-09-25T06:47:27.648Z,100834.44
2022-09-25T06:49:51.234Z,100824.59
2022-09-25T06:52:14.854Z,100831.00
2022-09-25T06:54:41.845Z,100830.41
2022-09-25T06:57:09.296Z,100827.72
2022-09-25T06:59:32.831Z,100831.25
2022-09-25T07:02:18.381Z,100828.50
2022-09-25T07:04:41.126Z,100835.69
2022-09-25T07:07:04.735Z,100831.31
2022-09-25T07:09:28.410Z,100836.09
2022-09-25T07:11:53.271Z,100829.66
2022-09-25T07:14:16.839Z,100823.03
2022-09-25T07:16:40.470Z,100822.72
2022-09-25T07:19:05.662Z,100814.72
2022-09-25T07:21:32.264Z,100817.22
2022-09-25T07:23:57.110Z,100818.13
2022-09-25T07:26:23.142Z,100820.41
2022-09-25T07:28:46.688Z,100816.44
2022-09-25T07:31:16.318Z,100821.59
2022-09-25T07:33:40.027Z,100818.22
2022-09-25T07:36:05.422Z,100827.84
2022-09-25T07:38:29.043Z,100819.34
2022-09-25T07:40:55.036Z,100820.00
2022-09-25T07:43:18.628Z,100819.16
2022-09-25T07:45:44.104Z,100820.06
2022-09-25T07:48:07.755Z,100821.94
2022-09-25T07:50:32.963Z,100824.78
2022-09-25T07:52:57.943Z,100819.50
2022-09-25T07:55:21.819Z,100816.03
2022-09-25T07:57:45.361Z,100817.88
2022-09-25T08:00:10.624Z,100812.53
2022-09-25T08:02:36.015Z,100813.72
2022-09-25T08:04:59.555Z,100810.00
2022-09-25T08:07:23.128Z,100800.38
2022-09-25T08:09:48.063Z,100799.75
2022-09-25T08:12:14.052Z,100802.78
2022-09-25T08:14:37.568Z,100798.19
2022-09-25T08:17:01.167Z,100800.91
2022-09-25T08:19:24.688Z,100799.25
2022-09-25T08:21:48.396Z,100796.94
2022-09-25T08:24:12.310Z,100795.19
2022-09-25T08:26:37.481Z,100800.03
2022-09-25T08:29:01.469Z,100795.56
2022-09-25T08:31:25.246Z,100793.78
2022-09-25T08:33:50.759Z,100796.28
2022-09-25T08:36:14.463Z,100789.72
2022-09-25T08:38:38.059Z,100794.34
2022-09-25T08:41:08.799Z,100793.69
2022-09-25T08:43:37.411Z,100795.06
2022-09-25T08:46:21.337Z,100791.75
2022-09-25T08:49:06.159Z,100791.13
2022-09-25T08:51:30.840Z,100789.38
2022-09-25T08:53:54.393Z,100790.41
2022-09-25T08:56:21.221Z,100788.56
2022-09-25T08:58:52.222Z,100793.00
2022-09-25T09:01:20.129Z,100785.34
2022-09-25T09:03:53.428Z,100785.00
2022-09-25T09:06:19.026Z,100787.69
2022-09-25T09:08:47.667Z,100782.53
2022-09-25T09:11:18.035Z,100778.28
2022-09-25T09:13:51.495Z,100781.91
2022-09-25T09:16:29.843Z,100776.59
2022-09-25T09:18:53.719Z,100778.28
2022-09-25T09:21:25.600Z,100770.97
2022-09-25T09:23:58.885Z,100767.91
2022-09-25T09:26:35.331Z,100768.66
2022-09-25T09:29:29.288Z,100766.88
2022-09-25T09:32:20.739Z,100766.69
2022-09-25T09:35:08.888Z,100762.34
2022-09-25T09:37:49.982Z,100761.47
2022-09-25T09:40:27.514Z,100756.28
2022-09-25T09:43:04.755Z,100753.69
2022-09-25T09:45:44.431Z,100756.75
2022-09-25T09:48:16.731Z,100750.78
2022-09-25T09:50:52.353Z,100754.94
2022-09-25T09:53:30.067Z,100745.81
2022-09-25T09:55:59.159Z,100750.03
2022-09-25T09:58:30.473Z,100739.81
2022-09-25T10:00:55.659Z,100749.75
2022-09-25T10:03:25.282Z,100744.00
2022-09-25T10:05:51.175Z,100737.00
2022-09-25T10:08:14.930Z,100736.91
2022-09-25T10:10:42.185Z,100735.31
2022-09-25T10:13:12.735Z,100732.69
2022-09-25T10:15:42.826Z,100742.91
2022-09-25T10:18:09.215Z,100738.06
2022-09-25T10:20:41.985Z,100736.66
2022-09-25T10:23:09.882Z,100737.84
2022-09-25T10:25:39.219Z,100734.41
2022-09-25T10:28:22.680Z,100732.75
2022-09-25T10:30:47.933Z,100736.75
2022-09-25T10:33:17.923Z,100733.28
2022-09-25T10:35:45.953Z,100733.91
2022-09-25T10:38:33.720Z,100738.75
2022-09-25T10:41:04.855Z,100734.00
2022-09-25T10:43:28.500Z,100729.69
2022-09-25T10:45:54.240Z,100727.44
2022-09-25T10:48:52.227Z,100730.69
2022-09-25T10:51:18.452Z,100728.66
2022-09-25T10:53:42.044Z,100728.78
2022-09-25T10:56:08.613Z,100729.03
2022-09-25T10:58:38.579Z,100729.44
2022-09-25T11:01:04.701Z,100730.00
2022-09-25T11:03:32.492Z,100722.31
2022-09-25T11:05:58.965Z,100733.13
2022-09-25T11:08:26.762Z,100727.16
2022-09-25T11:10:57.204Z,100731.16
2022-09-25T11:13:26.168Z,100731.88
2022-09-25T11:15:54.824Z,100724.31
2022-09-25T11:18:39.162Z,100728.03
2022-09-25T11:21:04.608Z,100724.47
2022-09-25T11:23:36.182Z,100718.78
2022-09-25T11:26:10.025Z,100716.31
2022-09-25T11:28:38.725Z,100709.03
2022-09-25T11:31:13.313Z,100711.78
2022-09-25T11:33:46.328Z,100706.31
2022-09-25T11:36:17.651Z,100706.59
2022-09-25T11:39:06.240Z,100702.47
2022-09-25T11:41:35.939Z,100698.03
2022-09-25T11:44:12.343Z,100698.94
2022-09-25T11:46:50.451Z,100701.25
2022-09-25T11:49:24.550Z,100696.53
2022-09-25T11:52:40.183Z,100688.00
2022-09-25T11:55:34.823Z,100690.69
2022-09-25T11:58:11.103Z,100687.25
2022-09-25T12:00:47.403Z,100682.69
2022-09-25T12:03:32.494Z,100680.00
2022-09-25T12:06:27.083Z,100675.72
2022-09-25T12:09:07.366Z,100670.59
2022-09-25T12:11:41.392Z,100663.91
2022-09-25T12:14:14.199Z,100664.63
2022-09-25T12:16:44.233Z,100670.41
2022-09-25T12:19:40.195Z,100668.88
2022-09-25T12:22:13.797Z,100660.03
2022-09-25T12:24:55.760Z,100658.44
2022-09-25T12:27:29.312Z,100657.25
2022-09-25T12:30:11.682Z,100653.03
2022-09-25T12:33:04.097Z,100661.38
2022-09-25T12:35:40.909Z,100655.78
2022-09-25T12:38:13.218Z,100656.06
2022-09-25T12:40:44.148Z,100651.56
2022-09-25T12:43:15.307Z,100646.34
2022-09-25T12:45:44.531Z,100651.25
2022-09-25T12:48:17.003Z,100646.41
2022-09-25T12:50:50.488Z,100644.94
2022-09-25T12:55:56.555Z,100633.50
2022-09-25T12:58:32.145Z,100642.06
2022-09-25T13:01:03.650Z,100642.44
2022-09-25T13:03:37.421Z,100636.09
2022-09-25T13:06:11.643Z,100634.16
2022-09-25T13:08:45.900Z,100634.19
2022-09-25T13:11:17.898Z,100625.84
2022-09-25T13:13:45.863Z,100627.94
2022-09-25T13:16:09.478Z,100629.91
2022-09-25T13:18:34.498Z,100632.13
2022-09-25T13:21:01.585Z,100628.31
2022-09-25T13:23:33.792Z,100623.50
2022-09-25T13:26:03.240Z,100630.66
2022-09-25T13:28:31.468Z,100631.56
2022-09-25T13:31:12.346Z,100623.84
2022-09-25T13:33:44.806Z,100622.91
2022-09-25T13:36:23.315Z,100620.97
2022-09-25T13:39:05.180Z,100625.31
2022-09-25T13:41:30.946Z,100618.47
2022-09-25T13:44:50.205Z,100616.72
2022-09-25T13:47:57.071Z,100616.25
2022-09-25T13:50:32.342Z,100612.44
2022-09-25T13:53:27.187Z,100609.91
2022-09-25T13:56:45.946Z,100608.19
2022-09-25T13:59:27.258Z,100607.00
2022-09-25T14:01:55.750Z,100604.13
2022-09-25T14:04:32.363Z,100600.84
2022-09-25T14:07:06.415Z,100604.66
2022-09-25T14:09:31.761Z,100598.75
2022-09-25T14:12:13.400Z,100601.16
2022-09-25T14:14:52.553Z,100601.81
2022-09-25T14:17:17.723Z,100602.06
2022-09-25T14:19:45.436Z,100599.00
2022-09-25T14:22:20.674Z,100595.91
2022-09-25T14:24:45.566Z,100595.03
2022-09-25T14:27:24.026Z,100588.63
2022-09-25T14:29:47.954Z,100579.94
2022-09-25T14:32:53.460Z,100584.16
2022-09-25T14:35:32.271Z,100585.69
2022-09-25T14:38:35.887Z,100582.13
2022-09-25T14:41:23.547Z,100578.94
2022-09-25T14:44:04.291Z,100573.97
2022-09-25T14:46:28.319Z,100569.25
2022-09-25T14:48:55.810Z,100569.06
2022-09-25T14:51:26.155Z,100573.22
2022-09-25T14:53:55.915Z,100571.41
2022-09-25T14:56:20.399Z,100565.28
2022-09-25T14:58:47.532Z,100562.50
2022-09-25T15:01:19.886Z,100562.31
2022-09-25T15:03:48.852Z,100563.34
2022-09-25T15:06:16.154Z,100560.94
2022-09-25T15:08:42.407Z,100561.44
2022-09-25T15:11:13.720Z,100560.00
2022-09-25T15:13:37.279Z,100565.16
2022-09-25T15:16:18.934Z,100560.88
2022-09-25T15:18:47.464Z,100562.84
2022-09-25T15:21:17.618Z,100561.44
2022-09-25T15:23:41.359Z,100561.81
2022-09-25T15:26:05.347Z,100561.53
2022-09-25T15:28:29.837Z,100546.47
2022-09-25T15:30:58.478Z,100556.47
2022-09-25T15:33:25.640Z,100553.84
2022-09-25T15:35:57.747Z,100557.09
2022-09-25T15:38:21.391Z,100554.81
2022-09-25T15:40:55.689Z,100559.19
2022-09-25T15:43:19.960Z,100556.72
2022-09-25T15:45:47.264Z,100557.63
2022-09-25T15:48:22.623Z,100561.72
2022-09-25T15:50:46.602Z,100559.19
2022-09-25T15:53:23.803Z,100551.06
2022-09-25T15:55:47.575Z,100556.59
2022-09-25T15:58:16.622Z,100561.06
2022-09-25T16:00:57.927Z,100546.56
2022-09-25T16:03:42.605Z,100548.63
2022-09-25T16:06:06.983Z,100544.09
2022-09-25T16:08:34.630Z,100541.19
2022-09-25T16:11:17.393Z,100543.69
2022-09-25T16:13:43.695Z,100540.22
2022-09-25T16:16:20.752Z,100541.38
2022-09-25T16:18:44.465Z,100536.56
2022-09-25T16:21:22.841Z,100533.19
2022-09-25T16:23:56.126Z,100536.19
2022-09-25T16:26:25.581Z,100536.00
2022-09-25T16:29:03.606Z,100544.19
2022-09-25T16:31:27.530Z,100540.69
2022-09-25T16:33:54.887Z,100536.50
2022-09-25T16:36:19.064Z,100541.59
2022-09-25T16:39:05.657Z,100539.31
2022-09-25T16:41:29.426Z,100550.63
2022-09-25T16:44:14.742Z,100544.41
2022-09-25T16:46:38.364Z,100544.47
2022-09-25T16:49:04.961Z,100550.69
2022-09-25T16:51:30.376Z,100547.19
2022-09-25T16:53:55.196Z,100548.47
2022-09-25T16:56:25.765Z,100546.28
2022-09-25T16:58:49.485Z,100544.78
2022-09-25T17:01:13.366Z,100550.94
2022-09-25T17:03:49.895Z,100545.16
2022-09-25T17:06:13.625Z,100542.00
2022-09-25T17:08:37.135Z,100540.44
2022-09-25T17:11:00.727Z,100544.81
2022-09-25T17:13:30.833Z,100541.75
2022-09-25T17:15:55.818Z,100538.56
2022-09-25T17:18:22.416Z,100545.56
2022-09-25T17:20:46.763Z,100540.50
2022-09-25T17:23:11.953Z,100536.97
2022-09-25T17:25:42.196Z,100540.53
2022-09-25T17:28:07.252Z,100531.25
2022-09-25T17:30:32.196Z,100536.16
2022-09-25T17:32:55.707Z,100534.28
2022-09-25T17:35:37.619Z,100541.44
2022-09-25T17:38:01.971Z,100540.06
2022-09-25T17:40:25.716Z,100543.09
2022-09-25T17:42:49.311Z,100539.88
2022-09-25T17:45:27.619Z,100545.81
2022-09-25T17:47:54.591Z,100541.09
2022-09-25T17:50:18.344Z,100543.09
2022-09-25T17:52:41.960Z,100553.28
2022-09-25T17:55:16.051Z,100554.47
2022-09-25T17:57:39.771Z,100549.91
2022-09-25T18:00:04.081Z,100560.22
2022-09-25T18:02:29.745Z,100555.66
2022-09-25T18:04:54.680Z,100561.56
2022-09-25T18:07:18.723Z,100558.34
2022-09-25T18:09:42.320Z,100567.16
2022-09-25T18:12:05.949Z,100555.63
2022-09-25T18:14:29.912Z,100551.38
2022-09-25T18:16:53.477Z,100538.00
2022-09-25T18:19:37.636Z,100545.44
2022-09-25T18:22:22.000Z,100554.28
2022-09-25T18:24:45.944Z,100553.41
2022-09-25T18:27:09.525Z,100555.25
2022-09-25T18:29:36.498Z,100549.88
2022-09-25T18:32:00.014Z,100545.44
2022-09-25T18:34:26.084Z,100547.66
2022-09-25T18:36:50.265Z,100544.59
2022-09-25T18:39:19.889Z,100535.59
2022-09-25T18:41:44.064Z,100536.59
2022-09-25T18:44:08.222Z,100540.50
2022-09-25T18:46:31.793Z,100540.88
2022-09-25T18:48:57.697Z,100543.38
2022-09-25T18:51:21.287Z,100546.06
2022-09-25T18:53:45.072Z,100546.03
2022-09-25T18:56:10.564Z,100546.41
2022-09-25T18:58:34.624Z,100547.72
2022-09-25T19:00:58.175Z,100546.38
2022-09-25T19:03:22.579Z,100546.56
2022-09-25T19:05:56.248Z,100537.84
2022-09-25T19:08:19.883Z,100543.16
2022-09-25T19:10:44.347Z,100527.59
2022-09-25T19:13:10.278Z,100535.47
2022-09-25T19:15:33.859Z,100530.38
2022-09-25T19:17:58.330Z,100541.56
2022-09-25T19:20:21.889Z,100546.28
2022-09-25T19:22:45.572Z,100537.16
2022-09-25T19:25:11.252Z,100540.00
2022-09-25T19:27:34.816Z,100535.75
2022-09-25T19:29:59.724Z,100535.75
2022-09-25T19:32:24.805Z,100536.25
2022-09-25T19:34:48.323Z,100537.09
2022-09-25T19:37:11.951Z,100530.31
2022-09-25T19:39:56.227Z,100532.66
2022-09-25T19:42:19.983Z,100539.44
2022-09-25T19:44:43.867Z,100531.97
2022-09-25T19:47:08.839Z,100538.88
2022-09-25T19:49:32.327Z,100525.16
2022-09-25T19:51:55.907Z,100529.22
2022-09-25T19:54:19.582Z,100527.00
2022-09-25T19:56:43.623Z,100528.22
2022-09-25T19:59:07.147Z,100530.53
2022-09-25T20:01:31.041Z,100525.88
2022-09-25T20:03:56.717Z,100530.69
2022-09-25T20:06:20.549Z,100524.41
2022-09-25T20:08:44.439Z,100520.34
2022-09-25T20:11:18.575Z,100519.09
2022-09-25T20:13:42.195Z,100519.63
2022-09-25T20:16:09.986Z,100516.50
2022-09-25T20:18:33.617Z,100515.59
2022-09-25T20:21:03.711Z,100513.50
2022-09-25T20:23:27.275Z,100517.88
2022-09-25T20:25:50.772Z,100522.78
2022-09-25T20:28:14.952Z,100518.88
2022-09-25T20:30:38.846Z,100521.13
2022-09-25T20:33:03.875Z,100514.16
2022-09-25T20:35:27.471Z,100513.38
2022-09-25T20:37:52.438Z,100501.13
2022-09-25T20:40:16.836Z,100504.25
2022-09-25T20:42:40.939Z,100507.13
2022-09-25T20:45:04.860Z,100501.88
2022-09-25T20:47:33.718Z,100494.13
2022-09-25T20:49:57.419Z,100501.63
2022-09-25T20:52:21.031Z,100497.72
2022-09-25T20:54:45.931Z,100501.81
2022-09-25T20:57:09.963Z,100501.81
2022-09-25T20:59:33.504Z,100498.50
2022-09-25T21:01:57.989Z,100503.97
2022-09-25T21:04:21.651Z,100489.34
2022-09-25T21:06:46.153Z,100496.41
2022-09-25T21:09:13.951Z,100490.84
2022-09-25T21:11:40.342Z,100496.81
2022-09-25T21:14:04.949Z,100489.09
2022-09-25T21:16:30.732Z,100490.56
2022-09-25T21:18:57.499Z,100495.16
2022-09-25T21:21:21.284Z,100493.31
2022-09-25T21:23:49.204Z,100484.84
2022-09-25T21:26:15.030Z,100481.88
2022-09-25T21:28:42.171Z,100480.56
2022-09-25T21:31:07.254Z,100483.94
2022-09-25T21:33:30.845Z,100484.84
2022-09-25T21:35:54.425Z,100484.03
2022-09-25T21:38:17.918Z,100474.56
2022-09-25T21:40:41.571Z,100470.09
2022-09-25T21:43:05.232Z,100472.88
2022-09-25T21:45:31.583Z,100472.41
2022-09-25T21:47:55.158Z,100473.34
2022-09-25T21:50:18.763Z,100473.81
2022-09-25T21:52:42.318Z,100473.41
2022-09-25T21:55:07.367Z,100460.88
2022-09-25T21:57:30.914Z,100463.94
2022-09-25T21:59:54.480Z,100465.28
2022-09-25T22:02:19.681Z,100459.72
2022-09-25T22:04:43.356Z,100460.34
2022-09-25T22:07:06.855Z,100472.00
2022-09-25T22:09:31.459Z,100458.31
2022-09-25T22:11:55.039Z,100469.50
2022-09-25T22:14:19.787Z,100462.84
2022-09-25T22:16:44.517Z,100468.47
2022-09-25T22:19:13.606Z,100468.03
2022-09-25T22:21:38.030Z,100470.63
2022-09-25T22:24:02.359Z,100466.25
2022-09-25T22:26:26.675Z,100465.06
2022-09-25T22:28:50.910Z,100456.75
2022-09-25T22:31:17.732Z,100449.00
2022-09-25T22:33:41.837Z,100447.16
2022-09-25T22:36:09.315Z,100448.97
2022-09-25T22:38:33.599Z,100452.72
2022-09-25T22:40:57.678Z,100451.72
2022-09-25T22:43:21.275Z,100443.44
2022-09-25T22:45:50.925Z,100450.25
2022-09-25T22:48:14.494Z,100443.63
2022-09-25T22:50:37.989Z,100437.69
2022-09-25T22:53:02.957Z,100441.91
2022-09-25T22:55:26.771Z,100440.59
2022-09-25T22:57:50.403Z,100436.59
2022-09-25T23:00:16.347Z,100445.97
2022-09-25T23:02:39.928Z,100443.31
2022-09-25T23:05:06.537Z,100434.44
2022-09-25T23:07:30.485Z,100445.25
2022-09-25T23:09:55.419Z,100435.00
2022-09-25T23:12:19.078Z,100437.25
2022-09-25T23:14:42.612Z,100438.88
2022-09-25T23:17:06.238Z,100437.25
2022-09-25T23:19:30.083Z,100434.22
2022-09-25T23:21:55.095Z,100434.91
2022-09-25T23:24:21.384Z,100435.75
2022-09-25T23:26:47.198Z,100435.28
2022-09-25T23:29:12.980Z,100438.72
2022-09-25T23:31:36.583Z,100434.84
2022-09-25T23:34:00.554Z,100440.88
2022-09-25T23:36:25.847Z,100441.31
2022-09-25T23:38:50.432Z,100437.38
2022-09-25T23:41:19.191Z,100429.56
2022-09-25T23:43:47.154Z,100431.63
2022-09-25T23:46:10.965Z,100435.03
2022-09-25T23:48:34.502Z,100431.72
2022-09-25T23:50:58.087Z,100423.16
2022-09-25T23:53:21.657Z,100418.53
2022-09-25T23:55:45.333Z,100421.84
2022-09-25T23:58:08.898Z,100407.63
